Time;durP1;ratioP1;P1;durP2;ratioP2;P2;SDS_P1;SDS_P2;PMS_P1;PMS_P2;Temp;Humidity;BMP_temperature;BMP_pressure;BME280_temperature;BME280_humidity;BME280_pressure;Samples;Min_cycle;Max_cycle;Signal;HPM_P1;HPM_P2
2023/12/01 00:00:13;;;;;;;9.50;5.43;;;-0.50;99.90;;;;;;6182588;23;20437;-63
2023/12/01 00:02:40;;;;;;;15.33;5.93;;;-0.50;99.90;;;;;;6182199;23;20390;-58
2023/12/01 00:05:10;;;;;;;9.80;6.13;;;-0.50;99.90;;;;;;6182311;23;20429;-62
2023/12/01 00:07:37;;;;;;;11.53;5.80;;;-1.40;99.90;;;;;;6183498;23;20385;-58
2023/12/01 00:10:10;;;;;;;11.10;5.27;;;-0.50;99.90;;;;;;6182693;23;20397;-62
2023/12/01 00:12:37;;;;;;;9.87;6.87;;;-0.40;99.90;;;;;;6183362;23;20461;-62
2023/12/01 00:15:07;;;;;;;11.83;6.43;;;-0.50;99.90;;;;;;6182731;23;20402;-65
2023/12/01 00:17:34;;;;;;;13.47;6.97;;;-0.50;99.90;;;;;;6182493;23;20437;-58
2023/12/01 00:20:02;;;;;;;9.20;5.67;;;-0.50;99.90;;;;;;6182071;23;20448;-61
2023/12/01 00:22:29;;;;;;;13.20;6.87;;;-0.50;99.90;;;;;;6182909;23;20453;-62
2023/12/01 00:24:56;;;;;;;7.47;5.70;;;-0.50;99.90;;;;;;6183574;23;20398;-57
2023/12/01 00:27:23;;;;;;;20.37;6.40;;;-0.50;99.90;;;;;;6184428;23;20412;-60
2023/12/01 00:29:52;;;;;;;11.50;6.70;;;-0.50;99.90;;;;;;6184642;23;20441;-66
2023/12/01 00:32:20;;;;;;;21.30;8.20;;;-0.50;99.90;;;;;;6183867;23;20401;-63
2023/12/01 00:34:47;;;;;;;20.87;8.10;;;-0.40;99.90;;;;;;6184798;23;20408;-66
2023/12/01 00:37:23;;;;;;;13.87;6.63;;;-0.40;99.90;;;;;;6184841;23;20401;-61
2023/12/01 00:39:49;;;;;;;17.60;6.70;;;-0.50;99.90;;;;;;6184667;23;20461;-59
2023/12/01 00:42:17;;;;;;;11.80;6.17;;;-0.50;99.90;;;;;;6184836;23;20418;-62
2023/12/01 00:44:45;;;;;;;15.53;6.40;;;-0.50;99.90;;;;;;6184668;23;20400;-63
2023/12/01 00:47:16;;;;;;;13.47;5.83;;;-0.50;99.90;;;;;;6184080;23;20441;-64
2023/12/01 00:49:44;;;;;;;8.30;5.80;;;-0.40;99.90;;;;;;6184357;23;20371;-64
2023/12/01 00:52:11;;;;;;;12.40;5.77;;;-0.40;99.90;;;;;;6184053;23;20398;-60
2023/12/01 00:54:38;;;;;;;12.27;6.43;;;-0.40;99.90;;;;;;6184298;23;20417;-63
2023/12/01 00:57:05;;;;;;;9.50;6.30;;;-0.40;99.90;;;;;;6184684;23;20385;-63
2023/12/01 00:59:32;;;;;;;12.33;6.50;;;-0.40;99.90;;;;;;6184467;23;20405;-66
2023/12/01 01:01:59;;;;;;;12.03;5.93;;;-0.40;99.90;;;;;;6185031;23;20378;-59
2023/12/01 01:04:26;;;;;;;8.50;5.17;;;-0.40;99.90;;;;;;6184680;23;20393;-62
2023/12/01 01:06:54;;;;;;;11.63;5.77;;;-0.40;99.90;;;;;;6184748;23;20418;-58
2023/12/01 01:09:21;;;;;;;13.10;6.43;;;-0.50;99.90;;;;;;6184325;23;20409;-61
2023/12/01 01:11:48;;;;;;;10.00;6.30;;;-0.50;99.90;;;;;;6184069;23;20394;-65
2023/12/01 01:14:14;;;;;;;11.23;5.60;;;-0.60;99.90;;;;;;6184458;23;20397;-61
2023/12/01 01:16:41;;;;;;;13.87;6.20;;;-0.70;99.90;;;;;;6183598;23;20401;-61
2023/12/01 01:19:08;;;;;;;9.40;5.93;;;-0.70;99.90;;;;;;6183467;23;20434;-60
2023/12/01 01:21:35;;;;;;;11.30;7.67;;;-0.70;99.90;;;;;;6182595;23;20437;-64
2023/12/01 01:24:03;;;;;;;11.13;6.47;;;-0.80;99.90;;;;;;6183930;23;20406;-62
2023/12/01 01:26:30;;;;;;;9.83;6.07;;;-0.80;99.90;;;;;;6184156;23;20383;-65
2023/12/01 01:28:57;;;;;;;11.87;4.93;;;-0.80;99.90;;;;;;6182885;23;20414;-64
2023/12/01 01:31:24;;;;;;;10.97;8.07;;;-0.80;99.90;;;;;;6183456;23;20428;-66
2023/12/01 01:33:51;;;;;;;9.93;6.27;;;-0.80;99.90;;;;;;6183533;23;20458;-62
2023/12/01 01:36:19;;;;;;;15.17;6.47;;;-0.90;99.90;;;;;;6183766;23;20418;-65
2023/12/01 01:38:48;;;;;;;18.33;8.43;;;-0.90;99.90;;;;;;6184042;23;20394;-60
2023/12/01 01:41:22;;;;;;;16.27;7.27;;;-0.80;99.90;;;;;;6183682;23;20500;-65
2023/12/01 01:43:49;;;;;;;13.90;6.73;;;-1.00;99.90;;;;;;6184990;23;20442;-56
2023/12/01 01:46:16;;;;;;;15.17;7.07;;;-1.00;99.90;;;;;;6184934;23;20417;-66
2023/12/01 01:48:46;;;;;;;17.00;6.50;;;-1.00;99.90;;;;;;6184812;23;20409;-62
2023/12/01 01:51:14;;;;;;;8.10;5.47;;;-1.00;99.90;;;;;;6184716;23;20461;-60
2023/12/01 01:53:42;;;;;;;16.63;7.40;;;-1.10;99.90;;;;;;6184177;23;20414;-65
2023/12/01 01:56:12;;;;;;;14.63;7.37;;;-1.10;99.90;;;;;;6184842;23;20398;-61
2023/12/01 01:58:40;;;;;;;9.83;5.63;;;-1.20;99.90;;;;;;6184590;23;20421;-54
2023/12/01 02:01:08;;;;;;;18.03;7.67;;;-1.10;99.90;;;;;;6184468;23;20429;-61
2023/12/01 02:03:35;;;;;;;22.97;6.60;;;-1.20;99.90;;;;;;6184296;23;20394;-59
2023/12/01 02:06:06;;;;;;;12.47;6.20;;;-1.20;99.90;;;;;;6184004;23;20422;-63
2023/12/01 02:08:33;;;;;;;14.80;6.03;;;-1.20;99.90;;;;;;6184236;23;20378;-64
2023/12/01 02:11:01;;;;;;;13.53;5.60;;;-1.30;99.90;;;;;;6184338;23;20413;-65
2023/12/01 02:13:28;;;;;;;9.50;5.47;;;-1.30;99.90;;;;;;6184262;23;20460;-67
2023/12/01 02:15:56;;;;;;;13.37;5.97;;;-1.40;99.90;;;;;;6184354;23;20420;-64
2023/12/01 02:18:28;;;;;;;19.67;6.07;;;-0.80;99.90;;;;;;6183482;23;20410;-67
2023/12/01 02:20:56;;;;;;;11.53;6.30;;;-1.40;99.90;;;;;;6183630;23;20434;-60
2023/12/01 02:23:26;;;;;;;14.00;6.50;;;-1.40;99.90;;;;;;6184039;23;20389;-65
2023/12/01 02:25:53;;;;;;;13.80;6.00;;;-1.40;99.90;;;;;;6183812;23;20394;-62
2023/12/01 02:28:21;;;;;;;14.37;6.17;;;-1.40;99.90;;;;;;6183846;23;20413;-63
2023/12/01 02:30:50;;;;;;;11.17;6.40;;;-1.30;99.90;;;;;;6184153;23;20383;-57
2023/12/01 02:33:18;;;;;;;14.37;6.20;;;-1.40;99.90;;;;;;6183388;23;20460;-64
2023/12/01 02:35:46;;;;;;;11.10;5.80;;;-1.30;99.90;;;;;;6183140;23;20402;-66
2023/12/01 02:38:13;;;;;;;10.97;6.80;;;-1.40;99.90;;;;;;6183938;23;20434;-63
2023/12/01 02:40:49;;;;;;;11.00;5.73;;;-1.30;99.90;;;;;;6183775;23;20539;-62
2023/12/01 02:43:16;;;;;;;10.37;6.87;;;-1.30;99.90;;;;;;6183954;23;20441;-63
2023/12/01 02:45:43;;;;;;;13.30;6.23;;;-1.30;99.90;;;;;;6184115;23;20393;-63
2023/12/01 02:48:10;;;;;;;12.73;7.07;;;-1.20;99.90;;;;;;6183903;23;20413;-65
2023/12/01 02:50:38;;;;;;;9.00;4.67;;;-1.40;99.90;;;;;;6184258;23;20405;-64
2023/12/01 02:53:05;;;;;;;11.20;6.40;;;-1.40;99.90;;;;;;6183592;23;20413;-65
2023/12/01 02:55:32;;;;;;;14.07;6.93;;;-1.50;99.90;;;;;;6183455;23;20414;-64
2023/12/01 02:58:01;;;;;;;10.07;7.23;;;-1.40;99.90;;;;;;6183566;23;20405;-63
2023/12/01 03:00:28;;;;;;;12.07;6.40;;;-1.50;99.90;;;;;;6183009;23;20440;-58
2023/12/01 03:02:54;;;;;;;13.33;5.70;;;-1.50;99.90;;;;;;6182809;23;20402;-64
2023/12/01 03:05:22;;;;;;;14.20;7.70;;;-1.40;99.90;;;;;;6183952;23;20398;-61
2023/12/01 03:07:49;;;;;;;9.50;6.10;;;-1.50;99.90;;;;;;6183949;23;20374;-63
2023/12/01 03:10:16;;;;;;;8.07;5.27;;;-1.50;99.90;;;;;;6183504;23;20401;-62
2023/12/01 03:12:44;;;;;;;8.73;5.40;;;-1.40;99.90;;;;;;6183413;23;20486;-65
2023/12/01 03:15:19;;;;;;;10.63;4.93;;;-1.40;99.90;;;;;;6182903;23;20390;-62
2023/12/01 03:17:47;;;;;;;8.73;5.87;;;-1.50;99.90;;;;;;6183630;23;20509;-61
2023/12/01 03:20:16;;;;;;;14.17;6.60;;;-1.50;99.90;;;;;;6183039;23;20392;-63
2023/12/01 03:22:46;;;;;;;8.93;6.07;;;-1.50;99.90;;;;;;6183562;23;20432;-59
2023/12/01 03:25:14;;;;;;;13.97;5.70;;;-1.50;99.90;;;;;;6184266;23;20393;-63
2023/12/01 03:27:42;;;;;;;8.80;5.90;;;-1.60;99.90;;;;;;6184038;23;20386;-62
2023/12/01 03:30:13;;;;;;;15.53;4.70;;;-1.60;99.90;;;;;;6184033;23;20371;-59
2023/12/01 03:32:45;;;;;;;8.60;5.17;;;-1.60;99.90;;;;;;6184110;23;20425;-62
2023/12/01 03:35:12;;;;;;;8.40;5.27;;;-1.70;99.90;;;;;;6184027;23;20370;-62
2023/12/01 03:37:43;;;;;;;16.80;6.13;;;-1.70;99.90;;;;;;6183920;23;20473;-65
2023/12/01 03:40:12;;;;;;;12.80;5.70;;;-1.70;99.90;;;;;;6183676;23;20440;-62
2023/12/01 03:42:43;;;;;;;11.13;6.47;;;-1.80;99.90;;;;;;6183535;23;20434;-66
2023/12/01 03:45:12;;;;;;;10.03;3.90;;;-1.80;99.90;;;;;;6183744;23;20482;-62
2023/12/01 03:47:39;;;;;;;9.50;5.43;;;-1.80;99.90;;;;;;6183620;23;20438;-57
2023/12/01 03:50:11;;;;;;;11.50;5.77;;;-1.80;99.90;;;;;;6183378;23;20394;-63
2023/12/01 03:52:46;;;;;;;8.80;4.80;;;-1.90;99.90;;;;;;6183311;23;20402;-62
2023/12/01 03:55:14;;;;;;;12.23;5.30;;;-1.90;99.90;;;;;;6183580;23;20382;-61
2023/12/01 03:57:42;;;;;;;9.53;5.50;;;-1.90;99.90;;;;;;6183527;23;20397;-63
2023/12/01 04:00:13;;;;;;;10.73;7.40;;;-1.90;99.90;;;;;;6183001;23;20394;-60
2023/12/01 04:02:41;;;;;;;10.00;3.87;;;-1.90;99.90;;;;;;6183376;23;20442;-65
2023/12/01 04:05:16;;;;;;;6.27;4.50;;;-2.00;99.90;;;;;;6183594;23;20425;-65
2023/12/01 04:07:44;;;;;;;12.60;6.50;;;-2.00;99.90;;;;;;6183354;23;20485;-66
2023/12/01 04:10:13;;;;;;;9.23;5.03;;;-2.00;99.90;;;;;;6183787;23;20464;-63
2023/12/01 04:12:44;;;;;;;18.13;6.43;;;-2.10;99.90;;;;;;6183333;23;20413;-66
2023/12/01 04:15:13;;;;;;;7.77;6.00;;;-2.00;99.90;;;;;;6183387;23;20390;-67
2023/12/01 04:17:42;;;;;;;15.00;7.20;;;-2.00;99.90;;;;;;6183065;23;20393;-65
2023/12/01 04:20:26;;;;;;;12.60;4.50;;;-2.00;99.90;;;;;;6183514;23;20421;-62
2023/12/01 04:22:55;;;;;;;7.60;5.20;;;-2.00;99.90;;;;;;6183530;23;20437;-64
2023/12/01 04:25:22;;;;;;;9.13;4.67;;;-2.00;99.90;;;;;;6183317;23;20390;-63
2023/12/01 04:27:50;;;;;;;7.93;4.47;;;-2.00;99.90;;;;;;6182938;23;20469;-64
2023/12/01 04:30:21;;;;;;;5.63;4.30;;;-2.00;99.90;;;;;;6183253;23;20421;-66
2023/12/01 04:32:52;;;;;;;5.03;3.53;;;-2.00;99.90;;;;;;6182884;23;20374;-65
2023/12/01 04:35:21;;;;;;;5.07;3.97;;;-1.90;99.90;;;;;;6182891;23;20496;-63
2023/12/01 04:37:48;;;;;;;6.43;4.20;;;-2.00;99.90;;;;;;6182937;23;20416;-63
2023/12/01 04:40:16;;;;;;;5.70;3.83;;;-1.90;99.90;;;;;;6183507;23;20406;-63
2023/12/01 04:42:45;;;;;;;6.33;3.80;;;-2.00;99.90;;;;;;6183159;23;20426;-64
2023/12/01 04:45:19;;;;;;;5.13;3.10;;;-2.00;99.90;;;;;;6183834;23;20394;-59
2023/12/01 04:47:50;;;;;;;7.60;4.70;;;-2.00;99.90;;;;;;6183405;23;20422;-58
2023/12/01 04:50:21;;;;;;;5.40;3.17;;;-2.00;99.90;;;;;;6183587;23;20386;-60
2023/12/01 04:52:50;;;;;;;7.43;4.53;;;-2.00;99.90;;;;;;6183046;23;20441;-60
2023/12/01 04:55:18;;;;;;;11.30;4.73;;;-2.00;99.90;;;;;;6183269;23;20382;-61
2023/12/01 04:57:49;;;;;;;5.97;3.30;;;-2.10;99.90;;;;;;6183026;23;20453;-58
2023/12/01 05:00:20;;;;;;;7.27;3.17;;;-2.10;99.90;;;;;;6182639;23;20402;-65
2023/12/01 05:02:48;;;;;;;8.00;2.97;;;-2.10;99.90;;;;;;6182016;23;20461;-66
2023/12/01 05:05:15;;;;;;;7.47;4.90;;;-2.10;99.90;;;;;;6182633;23;20455;-60
2023/12/01 05:07:42;;;;;;;8.07;3.90;;;-2.10;99.90;;;;;;6182665;23;20386;-65
2023/12/01 05:10:15;;;;;;;7.73;4.50;;;-2.10;99.90;;;;;;6183482;23;20401;-64
2023/12/01 05:12:49;;;;;;;7.10;3.47;;;-2.10;99.90;;;;;;6184727;23;20386;-66
2023/12/01 05:15:16;;;;;;;9.93;5.17;;;-2.10;99.90;;;;;;6184426;23;20434;-62
2023/12/01 05:17:47;;;;;;;5.30;3.43;;;-2.10;99.90;;;;;;6184606;23;20416;-64
2023/12/01 05:20:18;;;;;;;10.03;4.03;;;-2.10;99.90;;;;;;6184751;23;20418;-59
2023/12/01 05:22:46;;;;;;;8.10;4.07;;;-2.10;99.90;;;;;;6184579;23;20457;-57
2023/12/01 05:25:15;;;;;;;5.90;3.97;;;-2.00;99.90;;;;;;6184295;23;20406;-63
2023/12/01 05:27:44;;;;;;;6.90;4.20;;;-2.00;99.90;;;;;;6184795;23;20378;-60
2023/12/01 05:30:13;;;;;;;13.43;5.90;;;-2.00;99.90;;;;;;6184473;23;20390;-63
2023/12/01 05:32:41;;;;;;;8.60;3.73;;;-2.00;99.90;;;;;;6184477;23;20433;-63
2023/12/01 05:35:11;;;;;;;6.97;3.90;;;-2.00;99.90;;;;;;6184558;23;20421;-65
2023/12/01 05:37:39;;;;;;;8.73;4.30;;;-2.00;99.90;;;;;;6184538;23;20441;-63
2023/12/01 05:40:14;;;;;;;8.60;4.50;;;-1.10;99.90;;;;;;6184581;23;20430;-64
2023/12/01 05:42:45;;;;;;;7.47;5.37;;;-2.00;99.90;;;;;;6184238;23;20472;-61
2023/12/01 05:45:13;;;;;;;7.80;5.27;;;-2.00;99.90;;;;;;6184042;23;20378;-63
2023/12/01 05:47:43;;;;;;;7.37;4.73;;;-2.00;99.90;;;;;;6184134;23;20440;-66
2023/12/01 05:50:14;;;;;;;5.90;2.83;;;-1.90;99.90;;;;;;6184555;23;20404;-59
2023/12/01 05:52:42;;;;;;;4.40;3.53;;;-1.90;99.90;;;;;;6184438;23;20398;-63
2023/12/01 05:55:17;;;;;;;6.53;3.90;;;-1.90;99.90;;;;;;6184452;23;20429;-62
2023/12/01 05:57:47;;;;;;;7.50;3.60;;;-1.90;99.90;;;;;;6184446;23;20393;-66
2023/12/01 06:00:17;;;;;;;13.10;4.83;;;-0.90;99.90;;;;;;6184252;23;20437;-63
2023/12/01 06:02:44;;;;;;;7.13;4.30;;;-1.90;99.90;;;;;;6184616;23;20456;-65
2023/12/01 06:05:12;;;;;;;5.87;3.90;;;-1.90;99.90;;;;;;6184271;23;20433;-64
2023/12/01 06:07:41;;;;;;;6.17;2.70;;;-1.90;99.90;;;;;;6184281;23;20398;-61
2023/12/01 06:10:09;;;;;;;4.33;3.00;;;-1.90;99.90;;;;;;6184271;23;20451;-62
2023/12/01 06:12:37;;;;;;;7.10;5.57;;;-1.90;99.90;;;;;;6184570;23;20441;-60
2023/12/01 06:15:07;;;;;;;6.33;3.10;;;-1.90;99.90;;;;;;6184312;23;20390;-65
2023/12/01 06:17:37;;;;;;;8.50;4.67;;;-1.90;99.90;;;;;;6184388;23;20390;-61
2023/12/01 06:20:04;;;;;;;5.83;3.63;;;-1.90;99.90;;;;;;6184114;23;20390;-59
2023/12/01 06:22:32;;;;;;;9.63;4.50;;;-1.90;99.90;;;;;;6183847;23;20449;-64
2023/12/01 06:24:59;;;;;;;11.13;4.00;;;-2.00;99.90;;;;;;6184129;23;20390;-63
2023/12/01 06:27:26;;;;;;;4.43;3.23;;;-2.00;99.90;;;;;;6184094;23;20440;-65
2023/12/01 06:29:53;;;;;;;9.80;5.20;;;-2.00;99.90;;;;;;6184308;23;20422;-60
2023/12/01 06:32:24;;;;;;;6.10;4.47;;;-2.00;99.90;;;;;;6184033;23;20393;-57
2023/12/01 06:34:50;;;;;;;9.73;3.93;;;-2.00;99.90;;;;;;6184189;23;20381;-65
2023/12/01 06:37:19;;;;;;;8.80;3.80;;;-1.90;99.90;;;;;;6184372;23;20397;-58
2023/12/01 06:39:49;;;;;;;8.37;4.27;;;-1.90;99.90;;;;;;6184282;23;20432;-60
2023/12/01 06:42:16;;;;;;;7.50;3.50;;;-1.90;99.90;;;;;;6184376;23;20494;-61
2023/12/01 06:44:43;;;;;;;8.30;4.20;;;-1.90;99.90;;;;;;6184176;23;20414;-63
2023/12/01 06:47:11;;;;;;;7.83;4.73;;;-1.90;99.90;;;;;;6184169;23;20405;-65
2023/12/01 06:49:39;;;;;;;13.33;4.50;;;-1.90;99.90;;;;;;6184203;23;20449;-61
2023/12/01 06:52:08;;;;;;;5.80;3.70;;;-2.00;99.90;;;;;;6184123;23;20382;-60
2023/12/01 06:54:35;;;;;;;11.07;4.40;;;-2.00;99.90;;;;;;6183839;23;20412;-65
2023/12/01 06:57:02;;;;;;;6.43;4.13;;;-2.00;99.90;;;;;;6184414;23;20405;-57
2023/12/01 06:59:29;;;;;;;5.27;3.43;;;-2.00;99.90;;;;;;6184368;23;20400;-60
2023/12/01 07:01:56;;;;;;;7.93;5.13;;;-2.00;99.90;;;;;;6183888;23;20421;-64
2023/12/01 07:04:24;;;;;;;8.10;4.30;;;-2.00;99.90;;;;;;6183648;23;20390;-62
2023/12/01 07:06:53;;;;;;;12.10;5.87;;;-2.00;99.90;;;;;;6183920;23;20469;-64
2023/12/01 07:09:20;;;;;;;8.67;3.97;;;-2.00;99.90;;;;;;6183612;23;20382;-64
2023/12/01 07:11:49;;;;;;;8.10;4.27;;;-2.00;99.90;;;;;;6183893;23;20434;-65
2023/12/01 07:14:16;;;;;;;6.90;3.40;;;-1.80;99.90;;;;;;6183436;23;20401;-63
2023/12/01 07:16:44;;;;;;;13.03;5.50;;;-1.90;99.90;;;;;;6183186;23;20410;-65
2023/12/01 07:19:11;;;;;;;8.93;5.20;;;-1.90;99.90;;;;;;6183541;23;20390;-65
2023/12/01 07:21:38;;;;;;;14.20;6.60;;;-1.70;99.90;;;;;;6183656;23;20430;-63
2023/12/01 07:24:08;;;;;;;12.83;6.57;;;-1.80;99.90;;;;;;6183533;23;20430;-60
2023/12/01 07:26:35;;;;;;;8.50;5.00;;;-1.80;99.90;;;;;;6183218;23;20406;-64
2023/12/01 07:29:04;;;;;;;8.30;5.20;;;-1.80;99.90;;;;;;6182361;23;20414;-60
2023/12/01 07:31:33;;;;;;;18.47;5.67;;;-1.70;99.90;;;;;;6182225;23;20406;-63
2023/12/01 07:33:59;;;;;;;8.60;4.97;;;-1.70;99.90;;;;;;6183430;23;20409;-60
2023/12/01 07:36:27;;;;;;;7.57;5.47;;;-1.50;99.90;;;;;;6182988;23;20458;-64
2023/12/01 07:38:54;;;;;;;16.30;7.30;;;-1.70;99.90;;;;;;6183016;23;20396;-66
2023/12/01 07:41:21;;;;;;;11.47;5.40;;;-1.70;99.90;;;;;;6183424;23;20412;-57
2023/12/01 07:43:52;;;;;;;10.10;6.77;;;-1.60;99.90;;;;;;6182916;23;20425;-61
2023/12/01 07:46:20;;;;;;;12.00;6.40;;;-1.60;99.90;;;;;;6182985;23;20426;-63
2023/12/01 07:48:47;;;;;;;10.53;5.93;;;-1.60;99.90;;;;;;6182262;23;20401;-62
2023/12/01 07:51:13;;;;;;;13.73;6.40;;;-1.70;99.90;;;;;;6181767;23;20386;-58
2023/12/01 07:53:40;;;;;;;14.43;7.87;;;-1.60;99.90;;;;;;6181963;23;20434;-66
2023/12/01 07:56:10;;;;;;;12.63;7.20;;;-1.70;99.90;;;;;;6181386;23;20406;-60
2023/12/01 07:58:38;;;;;;;9.20;6.30;;;-1.70;99.90;;;;;;6181530;23;20389;-65
2023/12/01 08:01:06;;;;;;;13.23;6.73;;;-1.70;99.90;;;;;;6181984;23;20386;-60
2023/12/01 08:03:34;;;;;;;8.83;6.57;;;-1.70;99.90;;;;;;6182546;23;20525;-63
2023/12/01 08:06:03;;;;;;;8.50;5.50;;;-1.70;99.90;;;;;;6181651;23;20445;-64
2023/12/01 08:08:31;;;;;;;11.90;8.10;;;-1.70;99.90;;;;;;6182283;23;20422;-64
2023/12/01 08:10:57;;;;;;;11.53;6.50;;;-1.80;99.90;;;;;;6182189;23;20410;-59
2023/12/01 08:13:24;;;;;;;10.43;6.27;;;-1.70;99.90;;;;;;6182638;23;20389;-62
2023/12/01 08:15:53;;;;;;;9.90;6.13;;;-1.80;99.90;;;;;;6182945;23;20398;-58
2023/12/01 08:18:22;;;;;;;15.70;5.83;;;-1.80;99.90;;;;;;6182869;23;20479;-62
2023/12/01 08:20:50;;;;;;;13.50;7.07;;;-1.80;99.90;;;;;;6183283;23;20401;-59
2023/12/01 08:23:17;;;;;;;10.00;6.80;;;-1.80;99.90;;;;;;6182721;23;20506;-60
2023/12/01 08:25:46;;;;;;;13.60;6.33;;;-1.80;99.90;;;;;;6182044;23;20401;-65
2023/12/01 08:28:13;;;;;;;16.70;7.37;;;-1.70;99.90;;;;;;6182727;23;20402;-61
2023/12/01 08:30:43;;;;;;;9.07;6.50;;;-1.70;99.90;;;;;;6182444;23;20441;-66
2023/12/01 08:33:17;;;;;;;12.07;5.93;;;-1.70;99.90;;;;;;6182450;23;20394;-63
2023/12/01 08:35:44;;;;;;;13.43;7.27;;;-1.60;99.90;;;;;;6182878;23;20473;-60
2023/12/01 08:38:11;;;;;;;13.90;6.47;;;-1.60;99.90;;;;;;6182965;23;20401;-58
2023/12/01 08:40:40;;;;;;;14.07;8.00;;;-1.60;99.90;;;;;;6182824;23;20386;-62
2023/12/01 08:43:07;;;;;;;9.13;6.17;;;-1.60;99.90;;;;;;6182445;23;20460;-60
2023/12/01 08:45:35;;;;;;;8.70;6.47;;;-1.60;99.90;;;;;;6184497;23;20410;-60
2023/12/01 08:48:02;;;;;;;8.83;5.37;;;-1.50;99.90;;;;;;6184189;23;20421;-66
2023/12/01 08:50:30;;;;;;;16.67;7.07;;;-1.50;99.90;;;;;;6183471;23;20447;-65
2023/12/01 08:52:59;;;;;;;16.43;6.40;;;-1.40;99.90;;;;;;6184022;23;20386;-65
2023/12/01 08:55:26;;;;;;;10.00;6.87;;;-1.40;99.90;;;;;;6183896;23;20437;-62
2023/12/01 08:57:53;;;;;;;16.00;6.80;;;-1.30;99.90;;;;;;6183893;23;20397;-63
2023/12/01 09:00:21;;;;;;;12.80;6.40;;;-1.20;99.90;;;;;;6183706;23;20433;-55
2023/12/01 09:02:52;;;;;;;13.33;5.83;;;-1.20;99.90;;;;;;6184488;23;20437;-60
2023/12/01 09:05:19;;;;;;;12.07;6.50;;;-1.10;99.90;;;;;;6184720;23;20402;-64
2023/12/01 09:07:48;;;;;;;13.90;6.83;;;-1.10;99.90;;;;;;6183804;23;20397;-62
2023/12/01 09:10:15;;;;;;;10.93;6.13;;;-1.00;99.90;;;;;;6183821;23;20386;-64
2023/12/01 09:12:42;;;;;;;12.83;6.40;;;-0.90;99.90;;;;;;6183865;23;20444;-65
2023/12/01 09:15:11;;;;;;;9.60;5.37;;;-0.90;99.90;;;;;;6175912;23;20420;-67
2023/12/01 09:17:38;;;;;;;14.60;7.80;;;-0.80;99.90;;;;;;6158229;23;20434;-67
2023/12/01 09:20:09;;;;;;;13.53;6.83;;;-0.70;99.90;;;;;;6158178;23;20468;-66
2023/12/01 09:22:36;;;;;;;11.63;8.17;;;-0.60;99.90;;;;;;6158128;23;20524;-67
2023/12/01 09:25:05;;;;;;;13.27;7.00;;;-0.30;99.90;;;;;;6158416;23;20437;-66
2023/12/01 09:27:32;;;;;;;16.00;8.53;;;0.10;99.90;;;;;;6158667;23;20472;-66
2023/12/01 09:29:59;;;;;;;10.20;6.60;;;0.60;99.90;;;;;;6157934;23;20488;-66
2023/12/01 09:32:26;;;;;;;9.80;6.20;;;1.10;99.90;;;;;;6158462;23;20409;-66
2023/12/01 09:34:53;;;;;;;11.37;5.90;;;1.60;99.90;;;;;;6158505;23;20523;-66
2023/12/01 09:37:20;;;;;;;10.33;6.63;;;1.90;99.90;;;;;;6157512;23;20437;-67
2023/12/01 09:39:47;;;;;;;12.73;6.60;;;2.10;99.90;;;;;;6158327;23;20710;-68
2023/12/01 09:42:16;;;;;;;12.40;6.20;;;2.40;99.90;;;;;;6158251;23;20464;-68
2023/12/01 09:44:44;;;;;;;9.87;5.63;;;2.50;99.90;;;;;;6158310;23;20406;-67
2023/12/01 09:47:13;;;;;;;12.40;6.90;;;2.70;99.90;;;;;;6157959;23;20394;-70
2023/12/01 09:49:40;;;;;;;10.50;5.80;;;2.80;99.90;;;;;;6157940;23;20449;-68
2023/12/01 09:52:07;;;;;;;11.57;5.50;;;2.80;99.90;;;;;;6157904;23;20402;-67
2023/12/01 09:54:34;;;;;;;9.20;4.77;;;2.90;99.90;;;;;;6157618;23;20873;-67
2023/12/01 09:57:04;;;;;;;10.40;6.50;;;3.00;99.90;;;;;;6158036;23;20390;-63
2023/12/01 09:59:36;;;;;;;10.90;6.57;;;3.20;99.90;;;;;;6157613;23;20416;-68
2023/12/01 10:02:03;;;;;;;10.47;5.40;;;3.40;99.90;;;;;;6158213;23;20426;-66
2023/12/01 10:04:31;;;;;;;8.50;5.67;;;3.80;99.90;;;;;;6158124;23;20444;-68
2023/12/01 10:06:58;;;;;;;9.30;5.73;;;4.30;99.90;;;;;;6157872;23;20496;-66
2023/12/01 10:09:28;;;;;;;7.90;4.90;;;4.70;99.90;;;;;;6157701;23;20465;-66
2023/12/01 10:12:08;;;;;;;9.70;6.10;;;5.30;99.90;;;;;;6157829;23;20410;-67
2023/12/01 10:14:37;;;;;;;10.27;6.00;;;5.90;99.90;;;;;;6156190;23;20429;-66
2023/12/01 10:17:05;;;;;;;12.43;6.67;;;6.50;99.90;;;;;;6157724;23;20727;-68
2023/12/01 10:19:33;;;;;;;17.23;7.07;;;7.00;99.90;;;;;;6158079;23;20434;-65
2023/12/01 10:22:00;;;;;;;11.97;6.50;;;7.40;99.90;;;;;;6158143;23;20460;-64
2023/12/01 10:24:28;;;;;;;10.77;6.97;;;7.30;99.00;;;;;;6157743;23;20442;-67
2023/12/01 10:26:56;;;;;;;12.67;5.80;;;6.60;99.50;;;;;;6157783;23;20426;-63
2023/12/01 10:29:25;;;;;;;17.50;7.73;;;6.00;99.90;;;;;;6157140;23;20833;-65
2023/12/01 10:31:54;;;;;;;15.33;7.30;;;5.20;99.90;;;;;;6157437;23;20458;-64
2023/12/01 10:34:21;;;;;;;9.97;7.23;;;4.50;99.90;;;;;;6157322;23;20400;-66
2023/12/01 10:36:48;;;;;;;11.37;6.87;;;3.90;99.90;;;;;;6158322;23;20422;-64
2023/12/01 10:39:17;;;;;;;15.00;6.97;;;3.50;99.90;;;;;;6158042;23;20472;-63
2023/12/01 10:41:45;;;;;;;10.60;6.70;;;3.10;99.90;;;;;;6157426;23;20426;-68
2023/12/01 10:44:15;;;;;;;8.90;5.53;;;2.80;99.90;;;;;;6157604;23;20529;-68
2023/12/01 10:46:46;;;;;;;14.63;7.47;;;2.50;99.90;;;;;;6158965;23;20410;-70
2023/12/01 10:49:16;;;;;;;13.93;7.97;;;2.20;99.90;;;;;;6157875;23;20401;-69
2023/12/01 10:51:43;;;;;;;16.90;7.23;;;2.00;99.90;;;;;;6157315;23;20501;-67
2023/12/01 10:54:11;;;;;;;20.60;7.23;;;1.80;99.90;;;;;;6157589;23;20464;-68
2023/12/01 10:56:55;;;;;;;13.27;8.67;;;1.80;99.90;;;;;;6157979;23;20408;-68
2023/12/01 10:59:24;;;;;;;9.70;6.57;;;1.70;99.90;;;;;;6158193;23;20425;-68
2023/12/01 11:01:53;;;;;;;9.13;6.13;;;1.60;99.90;;;;;;6157538;23;20473;-68
2023/12/01 11:04:26;;;;;;;12.57;7.73;;;1.50;99.90;;;;;;6156719;23;21030;-69
2023/12/01 11:07:13;;;;;;;14.10;6.70;;;1.40;99.90;;;;;;6156957;23;20418;-68
2023/12/01 11:09:48;;;;;;;10.73;5.60;;;1.30;99.90;;;;;;6157195;23;20476;-67
2023/12/01 11:12:33;;;;;;;11.00;5.90;;;1.30;99.90;;;;;;6157644;23;20456;-69
2023/12/01 11:15:12;;;;;;;11.80;7.47;;;1.30;99.90;;;;;;6158485;23;20457;-68
2023/12/01 11:17:40;;;;;;;18.80;6.60;;;1.10;99.90;;;;;;6157691;23;20831;-70
2023/12/01 11:20:36;;;;;;;20.33;7.23;;;1.10;99.90;;;;;;6157098;23;20412;-68
2023/12/01 11:23:05;;;;;;;20.10;7.27;;;1.00;99.90;;;;;;6157118;23;20425;-68
2023/12/01 11:25:42;;;;;;;15.33;8.77;;;0.90;99.90;;;;;;6159308;23;20406;-70
2023/12/01 11:28:20;;;;;;;9.93;5.73;;;0.90;99.90;;;;;;6164140;23;20409;-67
2023/12/01 11:31:08;;;;;;;11.13;6.20;;;0.90;99.90;;;;;;6162302;23;20389;-70
2023/12/01 11:33:38;;;;;;;12.90;6.60;;;0.80;99.90;;;;;;6157175;23;20441;-68
2023/12/01 11:36:26;;;;;;;8.47;5.50;;;0.80;99.90;;;;;;6156842;23;20417;-69
2023/12/01 11:39:17;;;;;;;8.80;5.13;;;0.80;99.90;;;;;;6161493;23;20434;-67
2023/12/01 11:41:49;;;;;;;7.33;5.60;;;0.80;99.90;;;;;;6159971;23;20410;-68
2023/12/01 11:44:18;;;;;;;12.27;5.20;;;0.80;99.90;;;;;;6162569;23;20481;-71
2023/12/01 11:46:45;;;;;;;12.00;5.23;;;0.80;99.90;;;;;;6157534;23;20463;-67
2023/12/01 11:49:14;;;;;;;7.87;4.53;;;0.80;99.90;;;;;;6157547;23;20425;-71
2023/12/01 11:51:44;;;;;;;13.50;6.90;;;0.70;99.90;;;;;;6157050;23;20409;-67
2023/12/01 11:54:12;;;;;;;11.93;5.67;;;0.70;99.90;;;;;;6156882;23;20909;-63
2023/12/01 11:56:40;;;;;;;11.73;5.80;;;0.70;99.90;;;;;;6157062;23;20413;-68
2023/12/01 11:59:08;;;;;;;9.53;6.90;;;0.70;99.90;;;;;;6156763;23;20430;-67
2023/12/01 12:01:37;;;;;;;12.77;7.30;;;0.70;99.90;;;;;;6157350;23;20865;-66
2023/12/01 12:04:05;;;;;;;11.60;6.67;;;0.70;99.90;;;;;;6156381;23;20441;-68
2023/12/01 12:06:33;;;;;;;15.43;7.47;;;0.70;99.90;;;;;;6157009;23;20398;-68
2023/12/01 12:09:06;;;;;;;13.10;7.17;;;0.80;99.90;;;;;;6157005;23;20412;-67
2023/12/01 12:11:34;;;;;;;9.10;5.77;;;0.80;99.90;;;;;;6156829;23;20422;-70
2023/12/01 12:14:02;;;;;;;10.23;6.50;;;0.70;99.90;;;;;;6156980;23;20449;-67
2023/12/01 12:16:30;;;;;;;11.20;5.13;;;0.70;99.90;;;;;;6157246;23;20405;-68
2023/12/01 12:18:58;;;;;;;12.60;6.03;;;0.70;99.90;;;;;;6157649;23;20440;-68
2023/12/01 12:21:25;;;;;;;14.03;6.23;;;0.70;99.90;;;;;;6158582;23;20457;-69
2023/12/01 12:23:52;;;;;;;10.50;4.70;;;0.60;99.90;;;;;;6159201;23;20520;-66
2023/12/01 12:26:22;;;;;;;13.30;6.80;;;0.60;99.90;;;;;;6159196;23;20488;-67
2023/12/01 12:28:52;;;;;;;7.20;4.97;;;0.50;99.90;;;;;;6158913;23;20456;-67
2023/12/01 12:31:19;;;;;;;9.00;4.53;;;0.50;99.90;;;;;;6158965;23;20434;-70
2023/12/01 12:33:49;;;;;;;12.73;5.10;;;0.50;99.90;;;;;;6159126;23;20511;-65
2023/12/01 12:36:16;;;;;;;5.73;3.80;;;0.50;99.90;;;;;;6158753;23;20457;-68
2023/12/01 12:38:43;;;;;;;10.27;5.80;;;0.50;99.90;;;;;;6158634;23;20405;-67
2023/12/01 12:41:24;;;;;;;10.13;4.23;;;0.40;99.90;;;;;;6158960;23;20452;-68
2023/12/01 12:43:53;;;;;;;10.43;4.77;;;0.40;99.90;;;;;;6159424;23;20441;-67
2023/12/01 12:46:20;;;;;;;12.93;4.97;;;0.40;99.90;;;;;;6158937;23;20402;-66
2023/12/01 12:48:48;;;;;;;7.73;5.10;;;0.40;99.90;;;;;;6158567;23;20509;-67
2023/12/01 12:51:16;;;;;;;10.90;5.57;;;0.40;99.90;;;;;;6158516;23;20444;-64